Time;durP1;ratioP1;P1;durP2;ratioP2;P2;SDS_P1;SDS_P2;PMS_P1;PMS_P2;Temp;Humidity;BMP_temperature;BMP_pressure;BME280_temperature;BME280_humidity;BME280_pressure;Samples;Min_cycle;Max_cycle;Signal;HPM_P1;HPM_P2
2022/07/11 00:02:25;;;;;;;1.75;0.93;;;;;;;;;;4993280;28;20253;-51
2022/07/11 00:04:52;;;;;;;3.15;1.30;;;;;;;;;;5004352;28;21575;-51
2022/07/11 00:07:18;;;;;;;2.67;1.45;;;;;;;;;;5001503;28;20232;-52
2022/07/11 00:09:44;;;;;;;5.57;2.28;;;;;;;;;;5006137;28;20260;-52
2022/07/11 00:12:12;;;;;;;2.03;1.15;;;;;;;;;;4999749;28;20233;-53
2022/07/11 00:14:39;;;;;;;1.88;1.05;;;;;;;;;;5006801;28;20246;-52
2022/07/11 00:17:06;;;;;;;1.88;1.00;;;;;;;;;;5001845;28;20241;-52
2022/07/11 00:19:34;;;;;;;3.90;1.48;;;;;;;;;;4998038;28;20867;-52
2022/07/11 00:22:00;;;;;;;2.33;1.20;;;;;;;;;;5004864;28;20233;-53
2022/07/11 00:24:26;;;;;;;3.40;1.30;;;;;;;;;;5011595;28;20229;-53
2022/07/11 00:26:53;;;;;;;3.50;1.52;;;;;;;;;;5007612;28;20626;-52
2022/07/11 00:29:19;;;;;;;3.50;2.03;;;;;;;;;;5010778;28;20233;-53
2022/07/11 00:31:45;;;;;;;3.20;1.30;;;;;;;;;;5011194;28;20240;-51
2022/07/11 00:34:12;;;;;;;6.30;1.23;;;;;;;;;;5006105;28;20251;-53
2022/07/11 00:36:39;;;;;;;6.85;1.35;;;;;;;;;;5001713;28;20241;-52
2022/07/11 00:39:06;;;;;;;3.13;1.25;;;;;;;;;;5019463;28;20233;-52
2022/07/11 00:41:32;;;;;;;4.90;1.48;;;;;;;;;;5005139;28;20283;-53
2022/07/11 00:43:59;;;;;;;4.05;1.55;;;;;;;;;;5007987;28;20243;-52
2022/07/11 00:46:26;;;;;;;4.03;1.40;;;;;;;;;;5010537;28;20237;-52
2022/07/11 00:48:53;;;;;;;7.22;1.50;;;;;;;;;;5000428;28;20246;-52
2022/07/11 00:51:21;;;;;;;6.28;1.45;;;;;;;;;;5008114;28;20229;-52
2022/07/11 00:53:49;;;;;;;2.13;0.88;;;;;;;;;;5004645;28;20241;-52
2022/07/11 00:56:16;;;;;;;4.75;1.73;;;;;;;;;;4995456;28;20238;-53
2022/07/11 00:58:43;;;;;;;2.53;1.15;;;;;;;;;;4997099;28;20767;-53
2022/07/11 01:01:09;;;;;;;4.13;1.52;;;;;;;;;;4992984;28;20246;-52
2022/07/11 01:03:39;;;;;;;7.20;2.08;;;;;;;;;;4997546;28;20232;-50
2022/07/11 01:06:06;;;;;;;3.38;1.00;;;;;;;;;;5004194;28;20777;-53
2022/07/11 01:08:32;;;;;;;3.95;1.40;;;;;;;;;;4994933;28;20790;-52
2022/07/11 01:11:01;;;;;;;2.97;1.33;;;;;;;;;;4993492;28;20249;-51
2022/07/11 01:13:28;;;;;;;5.45;1.45;;;;;;;;;;4997732;28;20235;-53
2022/07/11 01:16:07;;;;;;;3.33;1.33;;;;;;;;;;4994955;28;20668;-53
2022/07/11 01:18:33;;;;;;;4.03;1.80;;;;;;;;;;4992822;28;20233;-53
2022/07/11 01:20:59;;;;;;;3.15;1.05;;;;;;;;;;4996695;28;20230;-53
2022/07/11 01:23:27;;;;;;;4.95;1.75;;;;;;;;;;4998150;28;20241;-53
2022/07/11 01:25:53;;;;;;;4.03;1.42;;;;;;;;;;4997389;28;20233;-53
2022/07/11 01:28:20;;;;;;;4.72;1.70;;;;;;;;;;4993396;28;20244;-51
2022/07/11 01:30:46;;;;;;;5.20;1.48;;;;;;;;;;5000504;28;20239;-54
2022/07/11 01:33:12;;;;;;;4.28;1.70;;;;;;;;;;4985566;28;20236;-52
2022/07/11 01:35:38;;;;;;;3.30;0.88;;;;;;;;;;4991595;28;20228;-52
2022/07/11 01:38:05;;;;;;;3.75;1.58;;;;;;;;;;4994218;28;20229;-51
2022/07/11 01:40:32;;;;;;;2.67;1.25;;;;;;;;;;4998608;28;20727;-53
2022/07/11 01:42:59;;;;;;;1.92;0.90;;;;;;;;;;4996487;28;20750;-52
2022/07/11 01:45:25;;;;;;;5.68;2.10;;;;;;;;;;5001201;28;20236;-52
2022/07/11 01:47:51;;;;;;;6.30;1.65;;;;;;;;;;4995045;28;20248;-52
2022/07/11 01:50:18;;;;;;;4.13;1.40;;;;;;;;;;4995096;28;20240;-50
2022/07/11 01:52:44;;;;;;;2.33;1.40;;;;;;;;;;4998987;28;20241;-54
2022/07/11 01:55:12;;;;;;;4.60;1.40;;;;;;;;;;4996572;28;20799;-51
2022/07/11 01:57:40;;;;;;;6.05;1.48;;;;;;;;;;5012608;28;20325;-52
2022/07/11 02:00:09;;;;;;;6.03;1.88;;;;;;;;;;5003557;28;20236;-52
2022/07/11 02:02:35;;;;;;;4.35;1.25;;;;;;;;;;5001403;28;20886;-52
2022/07/11 02:05:02;;;;;;;2.30;1.25;;;;;;;;;;4995019;28;20230;-54
2022/07/11 02:10:09;;;;;;;6.78;1.92;;;;;;;;;;4985917;28;20233;-52
2022/07/11 02:12:35;;;;;;;7.00;2.03;;;;;;;;;;5004189;28;20233;-54
2022/07/11 02:15:03;;;;;;;3.42;1.40;;;;;;;;;;4997416;28;20608;-51
2022/07/11 02:17:30;;;;;;;2.95;1.70;;;;;;;;;;5003873;28;20232;-52
2022/07/11 02:19:56;;;;;;;5.03;1.80;;;;;;;;;;4994672;28;20253;-54
2022/07/11 02:22:23;;;;;;;4.47;1.40;;;;;;;;;;5004664;28;20758;-51
2022/07/11 02:24:49;;;;;;;2.35;1.92;;;;;;;;;;5017586;28;20236;-52
2022/07/11 02:27:16;;;;;;;3.53;1.42;;;;;;;;;;5006182;28;20260;-53
2022/07/11 02:29:42;;;;;;;3.30;1.38;;;;;;;;;;5003763;28;20233;-51
2022/07/11 02:32:10;;;;;;;3.72;1.85;;;;;;;;;;5000353;28;20237;-51
2022/07/11 02:34:36;;;;;;;7.28;2.00;;;;;;;;;;4993590;28;20242;-52
2022/07/11 02:37:02;;;;;;;5.53;1.60;;;;;;;;;;5001869;28;20233;-53
2022/07/11 02:39:29;;;;;;;8.43;2.00;;;;;;;;;;5009927;28;20237;-51
2022/07/11 02:41:55;;;;;;;6.40;1.73;;;;;;;;;;5009243;28;21070;-52
2022/07/11 02:44:21;;;;;;;8.10;1.30;;;;;;;;;;5014178;28;20237;-51
2022/07/11 02:46:47;;;;;;;4.28;1.40;;;;;;;;;;5014845;28;20790;-52
2022/07/11 02:49:15;;;;;;;3.65;1.00;;;;;;;;;;5010624;28;20251;-52
2022/07/11 02:51:41;;;;;;;7.80;2.00;;;;;;;;;;5005867;28;20229;-51
2022/07/11 02:54:08;;;;;;;2.67;2.05;;;;;;;;;;5014229;28;20241;-52
2022/07/11 02:56:34;;;;;;;5.22;1.75;;;;;;;;;;5006485;28;20237;-52
2022/07/11 02:59:00;;;;;;;5.07;1.42;;;;;;;;;;5009622;28;20237;-51
2022/07/11 03:01:27;;;;;;;3.10;1.38;;;;;;;;;;5007780;28;20245;-52
2022/07/11 03:03:53;;;;;;;4.18;1.73;;;;;;;;;;5009579;28;20240;-53
2022/07/11 03:06:21;;;;;;;4.85;1.05;;;;;;;;;;5013198;28;20221;-55
2022/07/11 03:08:48;;;;;;;3.00;1.20;;;;;;;;;;5015156;28;20237;-54
2022/07/11 03:11:14;;;;;;;3.17;1.20;;;;;;;;;;5014929;28;20239;-53
2022/07/11 03:13:41;;;;;;;3.83;1.98;;;;;;;;;;5011431;28;20248;-52
2022/07/11 03:16:07;;;;;;;5.90;1.63;;;;;;;;;;5022471;28;20239;-51
2022/07/11 03:18:34;;;;;;;1.63;1.05;;;;;;;;;;5022025;28;20332;-52
2022/07/11 03:21:00;;;;;;;3.85;1.58;;;;;;;;;;5010648;28;20241;-53
2022/07/11 03:23:28;;;;;;;3.58;1.80;;;;;;;;;;5003837;28;20245;-51
2022/07/11 03:25:54;;;;;;;4.80;1.70;;;;;;;;;;5017985;28;20229;-51
2022/07/11 03:28:20;;;;;;;6.20;2.03;;;;;;;;;;5015699;28;20263;-51
2022/07/11 03:30:47;;;;;;;5.55;1.33;;;;;;;;;;5014740;28;20235;-52
2022/07/11 03:33:13;;;;;;;7.25;1.65;;;;;;;;;;5013412;28;20615;-53
2022/07/11 03:35:42;;;;;;;6.53;2.10;;;;;;;;;;5014348;28;20267;-55
2022/07/11 03:38:08;;;;;;;3.45;1.60;;;;;;;;;;5011169;28;20233;-54
2022/07/11 03:40:36;;;;;;;3.08;1.83;;;;;;;;;;5005414;28;20707;-51
2022/07/11 03:43:02;;;;;;;3.70;1.88;;;;;;;;;;5007324;28;20225;-54
2022/07/11 03:45:29;;;;;;;4.20;1.67;;;;;;;;;;5009996;28;20233;-52
2022/07/11 03:47:55;;;;;;;5.40;1.88;;;;;;;;;;5014660;28;20233;-52
2022/07/11 03:50:22;;;;;;;3.90;1.60;;;;;;;;;;5010157;28;20233;-53
2022/07/11 03:52:48;;;;;;;1.95;1.55;;;;;;;;;;5006386;28;20233;-52
2022/07/11 03:55:14;;;;;;;2.83;1.42;;;;;;;;;;5001515;28;20241;-52
2022/07/11 03:57:42;;;;;;;6.60;1.88;;;;;;;;;;5012050;28;20237;-52
2022/07/11 04:00:09;;;;;;;9.90;1.67;;;;;;;;;;5013438;28;20757;-51
2022/07/11 04:02:35;;;;;;;4.05;1.88;;;;;;;;;;5004956;28;20880;-52
2022/07/11 04:05:02;;;;;;;4.25;2.13;;;;;;;;;;5012966;28;20674;-53
2022/07/11 04:07:29;;;;;;;5.25;1.98;;;;;;;;;;5003867;28;20279;-53
2022/07/11 04:09:55;;;;;;;2.47;1.70;;;;;;;;;;5001378;28;20245;-51
2022/07/11 04:12:21;;;;;;;5.10;2.00;;;;;;;;;;5014026;28;20245;-54
2022/07/11 04:14:49;;;;;;;3.83;1.80;;;;;;;;;;5002799;28;20241;-53
2022/07/11 04:17:15;;;;;;;4.35;2.22;;;;;;;;;;5019437;28;20241;-52
2022/07/11 04:19:42;;;;;;;5.60;1.67;;;;;;;;;;5011918;28;20244;-52
2022/07/11 04:22:09;;;;;;;2.75;1.80;;;;;;;;;;5005134;28;20233;-58
2022/07/11 04:24:35;;;;;;;3.28;1.67;;;;;;;;;;5006597;28;20595;-51
2022/07/11 04:27:01;;;;;;;3.03;1.83;;;;;;;;;;5001693;28;20690;-53
2022/07/11 04:29:28;;;;;;;6.22;2.17;;;;;;;;;;5005850;28;20233;-53
2022/07/11 04:31:55;;;;;;;4.38;1.63;;;;;;;;;;4998338;28;20225;-51
2022/07/11 04:34:22;;;;;;;4.38;1.85;;;;;;;;;;5011095;28;20233;-57
2022/07/11 04:36:48;;;;;;;3.13;1.75;;;;;;;;;;5010409;28;20230;-54
2022/07/11 04:39:14;;;;;;;5.35;2.03;;;;;;;;;;5010552;28;20252;-52
2022/07/11 04:41:41;;;;;;;7.28;2.15;;;;;;;;;;4998439;28;20230;-53
2022/07/11 04:44:07;;;;;;;5.85;2.00;;;;;;;;;;5008436;28;20225;-53
2022/07/11 04:46:34;;;;;;;4.10;1.98;;;;;;;;;;5002966;28;20650;-53
2022/07/11 04:49:01;;;;;;;4.57;2.08;;;;;;;;;;5001798;28;20233;-54
2022/07/11 04:51:28;;;;;;;4.03;1.67;;;;;;;;;;5008933;28;20233;-57
2022/07/11 04:53:54;;;;;;;2.42;1.50;;;;;;;;;;5004932;28;20239;-52
2022/07/11 04:56:20;;;;;;;4.88;1.98;;;;;;;;;;5010715;28;20237;-53
2022/07/11 04:58:47;;;;;;;3.67;2.00;;;;;;;;;;5003005;28;20233;-52
2022/07/11 05:01:13;;;;;;;2.38;1.45;;;;;;;;;;5010415;28;20232;-58
2022/07/11 05:03:40;;;;;;;6.13;1.70;;;;;;;;;;5009979;28;20241;-53
2022/07/11 05:06:07;;;;;;;5.70;1.90;;;;;;;;;;5005800;28;20229;-56
2022/07/11 05:08:36;;;;;;;2.40;1.98;;;;;;;;;;5005300;28;20233;-57
2022/07/11 05:11:02;;;;;;;5.20;1.85;;;;;;;;;;5006628;28;20237;-52
2022/07/11 05:13:28;;;;;;;5.55;2.13;;;;;;;;;;5008725;28;20247;-53
2022/07/11 05:15:55;;;;;;;3.53;1.38;;;;;;;;;;4991844;28;20238;-53
2022/07/11 05:18:21;;;;;;;6.28;1.73;;;;;;;;;;4995836;28;20586;-51
2022/07/11 05:20:48;;;;;;;5.82;2.22;;;;;;;;;;5008720;28;20287;-52
2022/07/11 05:23:16;;;;;;;5.40;2.00;;;;;;;;;;4997518;28;20253;-51
2022/07/11 05:25:42;;;;;;;3.97;1.30;;;;;;;;;;5009303;28;20308;-51
2022/07/11 05:28:09;;;;;;;5.47;1.80;;;;;;;;;;5009554;28;20225;-52
2022/07/11 05:30:35;;;;;;;5.63;1.73;;;;;;;;;;5008128;28;20722;-53
2022/07/11 05:33:01;;;;;;;4.13;1.80;;;;;;;;;;5005833;28;20229;-52
2022/07/11 05:35:28;;;;;;;4.50;1.77;;;;;;;;;;5001480;28;20245;-54
2022/07/11 05:37:54;;;;;;;3.03;1.58;;;;;;;;;;4997984;28;20302;-53
2022/07/11 05:40:22;;;;;;;4.20;1.38;;;;;;;;;;4999200;28;20317;-51
2022/07/11 05:42:48;;;;;;;4.32;1.70;;;;;;;;;;5001310;28;20650;-53
2022/07/11 05:45:15;;;;;;;6.53;1.60;;;;;;;;;;5007049;28;20244;-60
2022/07/11 05:47:41;;;;;;;3.63;2.58;;;;;;;;;;4999514;28;20248;-56
2022/07/11 05:50:08;;;;;;;3.65;2.13;;;;;;;;;;5005498;28;20229;-56
2022/07/11 05:52:34;;;;;;;5.10;2.03;;;;;;;;;;5006781;28;20229;-52
2022/07/11 05:55:00;;;;;;;4.15;1.73;;;;;;;;;;5005235;28;20245;-52
2022/07/11 05:57:28;;;;;;;3.95;1.88;;;;;;;;;;5003234;28;20229;-58
2022/07/11 05:59:55;;;;;;;5.40;2.15;;;;;;;;;;5004938;28;20576;-53
2022/07/11 06:02:21;;;;;;;7.00;1.98;;;;;;;;;;5007896;28;20236;-52
2022/07/11 06:04:47;;;;;;;4.82;2.10;;;;;;;;;;5010565;28;20252;-52
2022/07/11 06:08:40;;;;;;;4.82;2.40;;;;;;;;;;5016732;28;20325;-52
2022/07/11 06:10:00;;;;;;;5.47;2.10;;;;;;;;;;5010323;28;20229;-52
2022/07/11 06:12:28;;;;;;;5.20;1.98;;;;;;;;;;5011386;28;20224;-51
2022/07/11 06:14:54;;;;;;;9.88;3.25;;;;;;;;;;5014902;28;20233;-54
2022/07/11 06:17:20;;;;;;;4.78;1.90;;;;;;;;;;5019272;28;20225;-59
2022/07/11 06:19:46;;;;;;;6.45;2.10;;;;;;;;;;5014451;28;20236;-60
2022/07/11 06:22:14;;;;;;;6.55;2.00;;;;;;;;;;5015394;28;20639;-60
2022/07/11 06:24:40;;;;;;;7.35;2.00;;;;;;;;;;5025125;28;20233;-52
2022/07/11 06:27:06;;;;;;;5.32;1.55;;;;;;;;;;5018048;28;20240;-52
2022/07/11 06:29:34;;;;;;;5.15;2.83;;;;;;;;;;5015738;28;20633;-52
2022/07/11 06:32:00;;;;;;;2.65;1.92;;;;;;;;;;5013246;28;20346;-54
2022/07/11 06:34:27;;;;;;;7.50;1.65;;;;;;;;;;5010946;28;20245;-53
2022/07/11 06:36:53;;;;;;;7.50;3.40;;;;;;;;;;5014526;28;20236;-53
2022/07/11 06:39:19;;;;;;;5.10;2.20;;;;;;;;;;5014446;28;20259;-52
2022/07/11 06:41:46;;;;;;;1.95;1.80;;;;;;;;;;5014716;28;20240;-54
2022/07/11 06:44:12;;;;;;;4.63;2.22;;;;;;;;;;5006157;28;20385;-51
2022/07/11 06:46:40;;;;;;;3.13;1.75;;;;;;;;;;5013972;28;20299;-52
2022/07/11 06:49:07;;;;;;;7.95;1.88;;;;;;;;;;5008850;28;20316;-52
2022/07/11 06:51:34;;;;;;;5.30;2.35;;;;;;;;;;5014123;28;20283;-52
2022/07/11 06:54:00;;;;;;;12.48;4.57;;;;;;;;;;5017871;28;20233;-56
2022/07/11 06:56:27;;;;;;;4.22;2.20;;;;;;;;;;5015688;28;20308;-52
2022/07/11 06:58:53;;;;;;;10.07;2.15;;;;;;;;;;5015200;28;20243;-52
2022/07/11 07:01:19;;;;;;;3.88;2.47;;;;;;;;;;5019176;28;20233;-59
2022/07/11 07:03:47;;;;;;;9.07;3.08;;;;;;;;;;5011114;28;20233;-51
2022/07/11 07:06:13;;;;;;;5.90;2.13;;;;;;;;;;5016940;28;20224;-52
2022/07/11 07:08:40;;;;;;;5.25;2.10;;;;;;;;;;5010504;28;20243;-52
2022/07/11 07:11:06;;;;;;;6.72;2.17;;;;;;;;;;5000883;28;20229;-53
2022/07/11 07:13:32;;;;;;;5.88;2.25;;;;;;;;;;5019384;28;20243;-52
2022/07/11 07:15:59;;;;;;;11.13;2.72;;;;;;;;;;5004682;28;20229;-51
2022/07/11 07:18:25;;;;;;;8.55;1.92;;;;;;;;;;5014637;28;20259;-51
2022/07/11 07:20:53;;;;;;;6.00;1.92;;;;;;;;;;5013025;28;20714;-51
2022/07/11 07:23:20;;;;;;;10.68;1.85;;;;;;;;;;5008433;28;20276;-52
2022/07/11 07:25:46;;;;;;;5.47;2.08;;;;;;;;;;5010203;28;20271;-52
2022/07/11 07:28:12;;;;;;;4.30;1.75;;;;;;;;;;5016858;28;20221;-56
2022/07/11 07:30:39;;;;;;;6.80;1.85;;;;;;;;;;5022216;28;20253;-52
2022/07/11 07:33:05;;;;;;;7.53;2.25;;;;;;;;;;5016863;28;20229;-53
2022/07/11 07:35:32;;;;;;;7.70;2.03;;;;;;;;;;5010953;28;20247;-52
2022/07/11 07:38:00;;;;;;;5.45;1.70;;;;;;;;;;5011723;28;20710;-52
2022/07/11 07:40:26;;;;;;;3.33;1.48;;;;;;;;;;5005080;28;20237;-53
2022/07/11 07:42:53;;;;;;;4.93;1.70;;;;;;;;;;5011151;28;20228;-52
2022/07/11 07:45:19;;;;;;;4.45;1.60;;;;;;;;;;5023570;28;20234;-55
2022/07/11 07:47:45;;;;;;;6.00;2.00;;;;;;;;;;5015925;28;20261;-53
2022/07/11 07:50:12;;;;;;;6.10;2.40;;;;;;;;;;5008985;28;20233;-57
2022/07/11 07:52:38;;;;;;;5.57;2.45;;;;;;;;;;5016850;28;20241;-54
2022/07/11 07:55:07;;;;;;;2.65;1.75;;;;;;;;;;5015056;28;20249;-53
2022/07/11 07:57:34;;;;;;;6.13;2.35;;;;;;;;;;5012018;28;20256;-52
2022/07/11 08:02:40;;;;;;;3.42;1.58;;;;;;;;;;5010540;28;20698;-52
2022/07/11 08:05:08;;;;;;;3.85;1.60;;;;;;;;;;5008422;28;20639;-51
2022/07/11 08:07:35;;;;;;;5.53;1.67;;;;;;;;;;5010049;28;20237;-53
2022/07/11 08:10:01;;;;;;;3.67;2.05;;;;;;;;;;5006701;28;20232;-52
2022/07/11 08:12:29;;;;;;;7.70;1.48;;;;;;;;;;5006222;28;20341;-51
2022/07/11 08:14:55;;;;;;;3.03;1.48;;;;;;;;;;5006691;28;20245;-51
2022/07/11 08:17:21;;;;;;;3.47;1.58;;;;;;;;;;5006653;28;20252;-51
2022/07/11 08:19:48;;;;;;;5.28;1.45;;;;;;;;;;5017529;28;20236;-53
2022/07/11 08:22:14;;;;;;;5.80;1.88;;;;;;;;;;5009868;28;20259;-53
2022/07/11 08:24:40;;;;;;;4.28;1.88;;;;;;;;;;5003874;28;20251;-51
2022/07/11 08:27:07;;;;;;;5.05;1.98;;;;;;;;;;5010772;28;20256;-51
2022/07/11 08:29:35;;;;;;;4.47;1.90;;;;;;;;;;5009232;28;20228;-51
2022/07/11 08:32:01;;;;;;;5.40;1.33;;;;;;;;;;5005471;28;20236;-51
2022/07/11 08:34:28;;;;;;;4.78;1.83;;;;;;;;;;5001930;28;20608;-52
2022/07/11 08:36:54;;;;;;;8.35;2.10;;;;;;;;;;5005549;28;20707;-51
2022/07/11 08:39:20;;;;;;;5.10;2.15;;;;;;;;;;4997733;28;20726;-52
2022/07/11 08:41:47;;;;;;;5.35;1.05;;;;;;;;;;5007205;28;20241;-52
2022/07/11 08:44:14;;;;;;;4.65;1.75;;;;;;;;;;5004041;28;20233;-51
2022/07/11 08:46:41;;;;;;;4.93;1.27;;;;;;;;;;5013185;28;20492;-51
2022/07/11 08:49:08;;;;;;;4.82;1.33;;;;;;;;;;5000151;28;20260;-50
2022/07/11 08:51:37;;;;;;;4.10;1.75;;;;;;;;;;5003962;28;20232;-51
2022/07/11 08:54:04;;;;;;;5.10;1.30;;;;;;;;;;5013173;28;20275;-52
2022/07/11 08:56:31;;;;;;;4.53;1.55;;;;;;;;;;5004979;28;20734;-52
2022/07/11 08:58:59;;;;;;;2.78;1.30;;;;;;;;;;5010945;28;20529;-52
2022/07/11 09:01:28;;;;;;;2.40;1.60;;;;;;;;;;5009076;28;20261;-51
2022/07/11 09:03:55;;;;;;;8.38;1.55;;;;;;;;;;5003630;28;20371;-53
2022/07/11 09:06:22;;;;;;;6.20;1.80;;;;;;;;;;5006049;28;20221;-51
2022/07/11 09:08:48;;;;;;;4.97;1.35;;;;;;;;;;5004045;28;20237;-52
2022/07/11 09:11:15;;;;;;;4.47;1.20;;;;;;;;;;5000963;28;20233;-52
2022/07/11 09:13:41;;;;;;;3.28;1.40;;;;;;;;;;5006552;28;20241;-52
2022/07/11 09:16:09;;;;;;;3.90;1.40;;;;;;;;;;4997828;28;20727;-52
2022/07/11 09:18:36;;;;;;;5.60;1.42;;;;;;;;;;4998438;28;20300;-52
2022/07/11 09:26:34;;;;;;;2.20;1.15;;;;;;;;;;4999819;28;20282;-51
2022/07/11 09:29:01;;;;;;;3.42;1.33;;;;;;;;;;5003565;28;20239;-52
2022/07/11 09:31:28;;;;;;;4.90;1.77;;;;;;;;;;5001791;28;20598;-51
2022/07/11 09:34:05;;;;;;;3.55;1.45;;;;;;;;;;5004636;28;20436;-52
2022/07/11 09:36:36;;;;;;;3.50;1.25;;;;;;;;;;4993952;28;20668;-50
2022/07/11 09:39:03;;;;;;;3.17;1.58;;;;;;;;;;5002270;28;20728;-52
2022/07/11 09:41:31;;;;;;;3.03;1.30;;;;;;;;;;4996319;28;20237;-52
2022/07/11 09:44:06;;;;;;;1.95;1.17;;;;;;;;;;5001680;28;20233;-52
2022/07/11 09:46:33;;;;;;;6.43;1.35;;;;;;;;;;5002941;28;20790;-53
2022/07/11 09:49:00;;;;;;;6.75;1.83;;;;;;;;;;4997926;28;20281;-50
2022/07/11 09:51:27;;;;;;;1.42;1.00;;;;;;;;;;4997548;28;20233;-53
2022/07/11 09:53:56;;;;;;;2.83;1.02;;;;;;;;;;5002431;28;20245;-55
2022/07/11 09:56:24;;;;;;;2.13;0.98;;;;;;;;;;5004371;28;20237;-53
2022/07/11 09:58:58;;;;;;;3.58;1.08;;;;;;;;;;4997374;28;20890;-52
2022/07/11 10:01:25;;;;;;;3.38;1.05;;;;;;;;;;4999976;28;20243;-52
2022/07/11 10:03:51;;;;;;;1.80;0.98;;;;;;;;;;5002757;28;20683;-51
2022/07/11 10:06:17;;;;;;;1.50;0.90;;;;;;;;;;5001251;28;20233;-51
2022/07/11 10:08:44;;;;;;;5.18;1.08;;;;;;;;;;5005844;28;20248;-52
2022/07/11 10:11:12;;;;;;;3.85;1.50;;;;;;;;;;5000072;28;20232;-53
2022/07/11 10:13:38;;;;;;;2.28;1.30;;;;;;;;;;4999882;28;20755;-52
2022/07/11 10:16:08;;;;;;;2.03;0.93;;;;;;;;;;5002500;28;20240;-51
2022/07/11 10:18:37;;;;;;;1.83;0.85;;;;;;;;;;4998396;28;20225;-52
2022/07/11 10:21:07;;;;;;;3.35;0.77;;;;;;;;;;5001956;28;20229;-52
2022/07/11 10:23:36;;;;;;;3.75;1.13;;;;;;;;;;5001178;28;20233;-52
2022/07/11 10:26:07;;;;;;;3.97;1.38;;;;;;;;;;5000645;28;20332;-52
2022/07/11 10:28:37;;;;;;;2.10;0.98;;;;;;;;;;4995337;28;20237;-52
2022/07/11 10:31:04;;;;;;;7.47;0.70;;;;;;;;;;4999169;28;20232;-53
2022/07/11 10:33:31;;;;;;;1.85;0.82;;;;;;;;;;5003287;28;20244;-52
2022/07/11 10:35:58;;;;;;;3.92;0.90;;;;;;;;;;5006831;28;20279;-51
2022/07/11 10:38:24;;;;;;;2.70;1.08;;;;;;;;;;5001115;28;20660;-52
2022/07/11 10:40:51;;;;;;;2.28;0.93;;;;;;;;;;5003192;28;20237;-51
2022/07/11 10:43:36;;;;;;;2.15;0.95;;;;;;;;;;5002965;28;20229;-54
2022/07/11 10:46:03;;;;;;;1.85;0.95;;;;;;;;;;4995009;28;20233;-51
2022/07/11 10:48:30;;;;;;;2.58;0.77;;;;;;;;;;4995101;28;20248;-51
2022/07/11 10:51:09;;;;;;;1.88;0.75;;;;;;;;;;5002684;28;20319;-51
2022/07/11 10:53:40;;;;;;;1.17;0.60;;;;;;;;;;5000589;28;20244;-53
2022/07/11 10:56:11;;;;;;;2.00;0.73;;;;;;;;;;5005066;28;20226;-51
2022/07/11 10:58:41;;;;;;;4.13;1.20;;;;;;;;;;5003115;28;20245;-52
2022/07/11 11:01:09;;;;;;;2.10;1.05;;;;;;;;;;5007860;28;20232;-51
2022/07/11 11:03:35;;;;;;;0.80;0.60;;;;;;;;;;5006463;28;20760;-52
2022/07/11 11:06:59;;;;;;;1.30;0.68;;;;;;;;;;5052860;27;20581;-51
2022/07/11 11:09:37;;;;;;;1.40;0.80;;;;;;;;;;5053404;28;20257;-51
2022/07/11 11:12:03;;;;;;;2.28;0.80;;;;;;;;;;5045866;28;20221;-53
2022/07/11 11:14:30;;;;;;;3.35;0.70;;;;;;;;;;5053668;28;20231;-53
2022/07/11 11:17:17;;;;;;;2.47;0.80;;;;;;;;;;5042646;28;20235;-52
2022/07/11 11:19:53;;;;;;;1.20;0.80;;;;;;;;;;5053988;28;20235;-53
2022/07/11 11:22:22;;;;;;;1.77;0.90;;;;;;;;;;5045881;28;20243;-52
2022/07/11 11:24:49;;;;;;;1.25;0.73;;;;;;;;;;5056868;28;20234;-52
2022/07/11 11:27:21;;;;;;;0.93;0.77;;;;;;;;;;5045977;28;20618;-52
2022/07/11 11:29:48;;;;;;;1.40;0.80;;;;;;;;;;5036092;28;20550;-53
2022/07/11 11:32:14;;;;;;;1.02;0.70;;;;;;;;;;5045332;28;20239;-54
2022/07/11 11:34:41;;;;;;;1.65;0.60;;;;;;;;;;5052990;28;20239;-52
2022/07/11 11:37:07;;;;;;;1.00;0.52;;;;;;;;;;5054534;28;20300;-52
2022/07/11 11:39:37;;;;;;;1.95;1.05;;;;;;;;;;5049681;28;20721;-51
2022/07/11 11:42:05;;;;;;;1.85;1.02;;;;;;;;;;5055548;28;20334;-51
2022/07/11 11:44:31;;;;;;;1.52;1.23;;;;;;;;;;5051534;28;20322;-52
2022/07/11 11:46:58;;;;;;;5.03;1.13;;;;;;;;;;5063911;28;20232;-51
2022/07/11 11:49:24;;;;;;;8.40;2.00;;;;;;;;;;5049865;28;20231;-50
2022/07/11 11:51:50;;;;;;;2.97;0.80;;;;;;;;;;5062431;28;20235;-53
2022/07/11 11:54:24;;;;;;;2.78;0.70;;;;;;;;;;5033832;28;20248;-52
2022/07/11 11:56:52;;;;;;;2.08;0.60;;;;;;;;;;5040037;28;20246;-53
2022/07/11 11:59:18;;;;;;;2.55;0.93;;;;;;;;;;5051810;28;20235;-53
2022/07/11 12:01:45;;;;;;;2.95;0.80;;;;;;;;;;5053179;28;20237;-52
2022/07/11 12:04:12;;;;;;;1.48;1.02;;;;;;;;;;5055516;28;20252;-52
2022/07/11 12:06:40;;;;;;;3.65;1.08;;;;;;;;;;5057894;28;20235;-51
2022/07/11 12:09:09;;;;;;;0.77;0.55;;;;;;;;;;5050458;28;20236;-52
2022/07/11 12:11:36;;;;;;;2.10;0.98;;;;;;;;;;5054529;28;20749;-51
2022/07/11 12:14:05;;;;;;;1.77;1.08;;;;;;;;;;5054002;28;20247;-52
2022/07/11 12:16:41;;;;;;;1.02;0.88;;;;;;;;;;5049845;28;20246;-51
2022/07/11 12:19:08;;;;;;;1.52;0.68;;;;;;;;;;5038993;28;20665;-51
2022/07/11 12:21:35;;;;;;;1.83;0.73;;;;;;;;;;5036333;28;20286;-51
2022/07/11 12:24:02;;;;;;;1.38;0.73;;;;;;;;;;5047706;28;20232;-51
2022/07/11 12:26:29;;;;;;;2.50;0.90;;;;;;;;;;5045745;28;20239;-52
2022/07/11 12:29:20;;;;;;;1.35;0.70;;;;;;;;;;5050693;28;20711;-53
2022/07/11 12:31:49;;;;;;;1.35;0.70;;;;;;;;;;5028074;28;20235;-52
2022/07/11 12:34:16;;;;;;;3.50;0.90;;;;;;;;;;5046669;28;20255;-53
2022/07/11 12:36:42;;;;;;;1.75;0.65;;;;;;;;;;5041518;28;20240;-51
2022/07/11 12:39:09;;;;;;;3.03;0.90;;;;;;;;;;5041606;28;20224;-52
2022/07/11 12:41:35;;;;;;;3.97;1.00;;;;;;;;;;5035339;28;20319;-53
2022/07/11 12:46:47;;;;;;;1.38;0.80;;;;;;;;;;5039885;28;20239;-53
2022/07/11 12:49:15;;;;;;;2.58;0.70;;;;;;;;;;5031768;28;20227;-53
2022/07/11 12:51:43;;;;;;;1.15;0.82;;;;;;;;;;5047716;28;20243;-53
2022/07/11 12:54:09;;;;;;;1.48;0.63;;;;;;;;;;5030713;28;20633;-53
2022/07/11 12:56:36;;;;;;;2.63;1.00;;;;;;;;;;5040764;28;20243;-50
2022/07/11 12:59:03;;;;;;;1.42;0.82;;;;;;;;;;5037057;28;20232;-52
2022/07/11 13:01:30;;;;;;;1.55;0.60;;;;;;;;;;5044272;28;20236;-54
2022/07/11 13:03:57;;;;;;;1.48;0.55;;;;;;;;;;5036165;28;20282;-51
2022/07/11 13:09:05;;;;;;;1.67;0.90;;;;;;;;;;5043028;28;20224;-52
2022/07/11 13:11:32;;;;;;;0.63;0.63;;;;;;;;;;5048364;28;20721;-51
2022/07/11 13:13:58;;;;;;;2.72;0.73;;;;;;;;;;5046647;28;20295;-53
2022/07/11 13:16:24;;;;;;;1.95;0.80;;;;;;;;;;5032451;28;20472;-51
2022/07/11 13:18:51;;;;;;;1.25;0.80;;;;;;;;;;5048377;28;20601;-50
2022/07/11 13:21:17;;;;;;;2.05;0.60;;;;;;;;;;5047950;28;20236;-51
2022/07/11 13:23:45;;;;;;;2.83;1.08;;;;;;;;;;5042220;28;20231;-52
2022/07/11 13:26:11;;;;;;;2.08;0.90;;;;;;;;;;5045991;28;20687;-52
2022/07/11 13:28:38;;;;;;;1.63;0.73;;;;;;;;;;5028583;28;20244;-52
2022/07/11 13:31:05;;;;;;;1.48;0.85;;;;;;;;;;5038933;28;20235;-52
2022/07/11 13:33:32;;;;;;;2.03;1.08;;;;;;;;;;5038984;28;20765;-54
2022/07/11 13:35:58;;;;;;;0.90;0.60;;;;;;;;;;5039309;28;20777;-52
2022/07/11 13:38:26;;;;;;;3.60;0.98;;;;;;;;;;5036765;28;20232;-52
2022/07/11 13:40:53;;;;;;;1.40;0.88;;;;;;;;;;5038062;28;20236;-52
2022/07/11 13:43:20;;;;;;;0.93;0.73;;;;;;;;;;5032018;28;20240;-52
2022/07/11 13:45:47;;;;;;;1.63;1.13;;;;;;;;;;5041936;28;20238;-52
2022/07/11 13:48:13;;;;;;;2.25;0.68;;;;;;;;;;5039445;28;20231;-51
2022/07/11 13:50:40;;;;;;;2.13;0.52;;;;;;;;;;5029204;28;20706;-52
2022/07/11 13:53:06;;;;;;;0.60;0.43;;;;;;;;;;5021406;28;20625;-52
2022/07/11 13:55:32;;;;;;;2.05;0.60;;;;;;;;;;5045409;28;20936;-52
2022/07/11 13:58:01;;;;;;;1.05;0.70;;;;;;;;;;5022958;28;20241;-52
2022/07/11 14:00:28;;;;;;;0.75;0.55;;;;;;;;;;5036273;28;20243;-51
2022/07/11 14:02:54;;;;;;;1.63;0.75;;;;;;;;;;5040760;28;20629;-52
2022/07/11 14:05:21;;;;;;;0.68;0.50;;;;;;;;;;5044512;28;20242;-51
2022/07/11 14:07:47;;;;;;;3.10;0.73;;;;;;;;;;5038655;28;20229;-52
2022/07/11 14:10:14;;;;;;;0.70;0.40;;;;;;;;;;5040796;28;20730;-52
2022/07/11 14:12:40;;;;;;;1.65;0.70;;;;;;;;;;5036042;28;20237;-51
2022/07/11 14:15:09;;;;;;;2.00;0.77;;;;;;;;;;5038768;28;20247;-52
2022/07/11 14:17:36;;;;;;;1.17;0.80;;;;;;;;;;5039126;28;20670;-52
2022/07/11 14:20:02;;;;;;;2.30;1.00;;;;;;;;;;5034132;28;20247;-52
2022/07/11 14:22:28;;;;;;;0.50;0.50;;;;;;;;;;5049618;28;20236;-51
2022/07/11 14:24:55;;;;;;;4.15;0.68;;;;;;;;;;5022801;28;20247;-53
2022/07/11 14:27:21;;;;;;;2.22;1.00;;;;;;;;;;5033111;28;20425;-53
2022/07/11 14:29:48;;;;;;;1.50;0.80;;;;;;;;;;5038716;28;20243;-52
2022/07/11 14:32:16;;;;;;;1.42;0.60;;;;;;;;;;5037567;28;20231;-53
2022/07/11 14:34:43;;;;;;;2.70;0.85;;;;;;;;;;5036618;28;20262;-51
2022/07/11 14:37:10;;;;;;;2.80;0.57;;;;;;;;;;5041290;28;20240;-52
2022/07/11 14:39:36;;;;;;;5.07;0.90;;;;;;;;;;5036155;28;20231;-53
2022/07/11 14:42:03;;;;;;;6.47;1.20;;;;;;;;;;5043658;28;20231;-51
2022/07/11 14:44:29;;;;;;;1.13;0.60;;;;;;;;;;5043828;28;20591;-52
2022/07/11 14:46:55;;;;;;;5.05;0.90;;;;;;;;;;5047508;28;20651;-53
2022/07/11 14:49:23;;;;;;;1.23;0.63;;;;;;;;;;5041057;28;20235;-52
2022/07/11 14:51:49;;;;;;;0.90;0.63;;;;;;;;;;5035963;28;20309;-51
2022/07/11 14:54:16;;;;;;;1.52;0.75;;;;;;;;;;5016499;28;20224;-51
2022/07/11 14:56:43;;;;;;;1.17;0.60;;;;;;;;;;5011010;28;20644;-52
2022/07/11 14:59:09;;;;;;;0.75;0.60;;;;;;;;;;5016571;28;20244;-53
2022/07/11 15:01:35;;;;;;;2.28;0.88;;;;;;;;;;5022229;28;20241;-52